Southlake's Hourly Summary for Thursday, July 5, 2018
Hour Temp
(f)
RH
(%)
Solar Rad.
(MJ/m2)
Rainfall
(in)
Wind
(mph)
7/5/2018 12:00 AM 79 73 0 0 3.65
7/5/2018 1:00 AM 78 77 0 0 3.46
7/5/2018 2:00 AM 76 81 0 0 2.4
7/5/2018 3:00 AM 75 84 0 0 1.51
7/5/2018 4:00 AM 74 88 0 0 1.28
7/5/2018 5:00 AM 73 90 0 0 1.06
7/5/2018 6:00 AM 71 94 0.01 0 1.12
7/5/2018 7:00 AM 75 86 0.34 0 1.74
7/5/2018 8:00 AM 75 92 1 0 2.74
7/5/2018 9:00 AM 80 70 1.76 0 3.24
7/5/2018 10:00 AM 84 60 2.32 0 2.69
7/5/2018 11:00 AM 87 53 2.93 0 3.63
7/5/2018 12:00 PM 89 48 3.29 0 4.3
7/5/2018 1:00 PM 90 46 2.65 0 4.19
7/5/2018 2:00 PM 93 42 3.03 0 4.75
7/5/2018 3:00 PM 95 37 3.27 0 3.41
7/5/2018 4:00 PM 96 36 2.75 0 4.53
7/5/2018 5:00 PM 96 36 1.87 0 4.53
7/5/2018 6:00 PM 95 38 1.25 0 5.26
7/5/2018 7:00 PM 92 44 0.36 0 5.14
7/5/2018 8:00 PM 90 51 0.13 0 3.86
7/5/2018 9:00 PM 88 52 0 0 3.86
7/5/2018 10:00 PM 87 56 0 0 4.81
7/5/2018 11:00 PM 86 58 0 0 5.76
Data Summary 84 62 26.96 0.00 3.46